sensor_id;sensor_type;location;lat;lon;timestamp;pressure;altitude;pressure_sealevel;temperature;humidity
59600;BME280;61855;55.030;73.326;2022-09-09T00:04:32;100488.75;;;8.34;74.38
59600;BME280;61855;55.030;73.326;2022-09-09T00:09:26;100480.00;;;8.32;73.57
59600;BME280;61855;55.030;73.326;2022-09-09T00:12:11;100475.78;;;8.29;73.45
59600;BME280;61855;55.030;73.326;2022-09-09T00:14:40;100477.03;;;8.25;73.37
59600;BME280;61855;55.030;73.326;2022-09-09T00:17:12;100484.59;;;8.22;73.21
59600;BME280;61855;55.030;73.326;2022-09-09T00:22:51;100481.59;;;8.07;73.41
59600;BME280;61855;55.030;73.326;2022-09-09T00:25:24;100488.03;;;7.96;73.50
59600;BME280;61855;55.030;73.326;2022-09-09T00:27:52;100488.13;;;7.87;73.69
59600;BME280;61855;55.030;73.326;2022-09-09T00:30:33;100484.81;;;7.75;73.81
59600;BME280;61855;55.030;73.326;2022-09-09T00:33:01;100491.25;;;7.65;74.10
59600;BME280;61855;55.030;73.326;2022-09-09T00:35:32;100496.69;;;7.55;74.70
59600;BME280;61855;55.030;73.326;2022-09-09T00:38:15;100485.16;;;7.45;74.62
59600;BME280;61855;55.030;73.326;2022-09-09T00:40:48;100497.09;;;7.33;75.32
59600;BME280;61855;55.030;73.326;2022-09-09T00:43:29;100494.63;;;7.22;75.02
59600;BME280;61855;55.030;73.326;2022-09-09T00:48:25;100494.53;;;7.04;75.67
59600;BME280;61855;55.030;73.326;2022-09-09T00:51:00;100486.53;;;6.95;75.51
59600;BME280;61855;55.030;73.326;2022-09-09T00:56:29;100481.53;;;6.72;75.85
59600;BME280;61855;55.030;73.326;2022-09-09T00:59:04;100481.97;;;6.68;76.62
59600;BME280;61855;55.030;73.326;2022-09-09T01:01:30;100481.84;;;6.60;76.09
59600;BME280;61855;55.030;73.326;2022-09-09T01:03:56;100477.91;;;6.54;76.80
59600;BME280;61855;55.030;73.326;2022-09-09T01:11:21;100475.94;;;6.37;77.23
59600;BME280;61855;55.030;73.326;2022-09-09T01:13:49;100477.81;;;6.37;77.18
59600;BME280;61855;55.030;73.326;2022-09-09T01:16:19;100473.44;;;6.36;77.38
59600;BME280;61855;55.030;73.326;2022-09-09T01:18:46;100476.25;;;6.34;77.46
59600;BME280;61855;55.030;73.326;2022-09-09T01:26:46;100475.25;;;6.35;77.56
59600;BME280;61855;55.030;73.326;2022-09-09T01:29:23;100490.91;;;6.40;77.74
59600;BME280;61855;55.030;73.326;2022-09-09T01:32:35;100487.22;;;6.50;77.95
59600;BME280;61855;55.030;73.326;2022-09-09T01:34:48;100488.47;;;6.65;78.55
59600;BME280;61855;55.030;73.326;2022-09-09T01:37:14;100503.50;;;6.86;78.91
59600;BME280;61855;55.030;73.326;2022-09-09T01:39:40;100493.84;;;7.02;78.95
59600;BME280;61855;55.030;73.326;2022-09-09T01:42:12;100494.38;;;7.15;78.51
59600;BME280;61855;55.030;73.326;2022-09-09T01:44:40;100495.84;;;7.27;78.61
59600;BME280;61855;55.030;73.326;2022-09-09T01:47:06;100503.03;;;7.36;78.51
59600;BME280;61855;55.030;73.326;2022-09-09T01:49:34;100501.56;;;7.42;78.34
59600;BME280;61855;55.030;73.326;2022-09-09T01:52:08;100501.81;;;7.48;78.51
59600;BME280;61855;55.030;73.326;2022-09-09T01:54:37;100500.22;;;7.56;78.65
59600;BME280;61855;55.030;73.326;2022-09-09T02:00:32;100506.47;;;7.74;77.51
59600;BME280;61855;55.030;73.326;2022-09-09T02:06:30;100499.59;;;7.89;76.38
59600;BME280;61855;55.030;73.326;2022-09-09T02:08:50;100498.09;;;7.94;76.60
59600;BME280;61855;55.030;73.326;2022-09-09T02:11:18;100499.19;;;8.01;76.02
59600;BME280;61855;55.030;73.326;2022-09-09T02:13:52;100494.88;;;8.08;75.35
59600;BME280;61855;55.030;73.326;2022-09-09T02:19:16;100497.19;;;8.21;74.64
59600;BME280;61855;55.030;73.326;2022-09-09T02:22:17;100491.50;;;8.24;74.52
59600;BME280;61855;55.030;73.326;2022-09-09T02:24:45;100493.63;;;8.20;74.72
59600;BME280;61855;55.030;73.326;2022-09-09T02:27:25;100490.28;;;8.18;74.63
59600;BME280;61855;55.030;73.326;2022-09-09T02:29:51;100488.91;;;8.14;74.67
59600;BME280;61855;55.030;73.326;2022-09-09T02:32:28;100494.97;;;8.16;74.43
59600;BME280;61855;55.030;73.326;2022-09-09T02:35:03;100505.72;;;8.16;74.40
59600;BME280;61855;55.030;73.326;2022-09-09T02:37:35;100500.88;;;8.20;74.39
59600;BME280;61855;55.030;73.326;2022-09-09T02:40:03;100491.34;;;8.26;74.06
59600;BME280;61855;55.030;73.326;2022-09-09T02:42:32;100487.91;;;8.33;73.76
59600;BME280;61855;55.030;73.326;2022-09-09T02:45:00;100490.34;;;8.44;73.35
59600;BME280;61855;55.030;73.326;2022-09-09T02:47:33;100487.91;;;8.51;73.14
59600;BME280;61855;55.030;73.326;2022-09-09T02:50:13;100486.09;;;8.59;72.87
59600;BME280;61855;55.030;73.326;2022-09-09T02:55:52;100490.78;;;8.83;72.55
59600;BME280;61855;55.030;73.326;2022-09-09T02:58:21;100489.81;;;8.92;72.22
59600;BME280;61855;55.030;73.326;2022-09-09T03:01:01;100485.19;;;9.02;71.60
59600;BME280;61855;55.030;73.326;2022-09-09T03:03:34;100490.94;;;9.15;71.04
59600;BME280;61855;55.030;73.326;2022-09-09T03:06:05;100487.31;;;9.24;70.78
59600;BME280;61855;55.030;73.326;2022-09-09T03:08:36;100487.19;;;9.34;70.74
59600;BME280;61855;55.030;73.326;2022-09-09T03:11:12;100487.06;;;9.43;70.43
59600;BME280;61855;55.030;73.326;2022-09-09T03:13:41;100475.13;;;9.54;69.57
59600;BME280;61855;55.030;73.326;2022-09-09T03:16:09;100476.81;;;9.63;69.50
59600;BME280;61855;55.030;73.326;2022-09-09T03:18:41;100477.72;;;9.72;69.17
59600;BME280;61855;55.030;73.326;2022-09-09T03:21:12;100479.59;;;9.79;69.15
59600;BME280;61855;55.030;73.326;2022-09-09T03:23:39;100474.38;;;9.86;68.42
59600;BME280;61855;55.030;73.326;2022-09-09T03:26:15;100471.66;;;9.94;68.29
59600;BME280;61855;55.030;73.326;2022-09-09T03:28:44;100469.00;;;10.02;68.09
59600;BME280;61855;55.030;73.326;2022-09-09T03:31:11;100475.09;;;10.12;68.09
59600;BME280;61855;55.030;73.326;2022-09-09T03:33:40;100474.09;;;10.21;67.09
59600;BME280;61855;55.030;73.326;2022-09-09T03:36:22;100458.91;;;10.28;66.93
59600;BME280;61855;55.030;73.326;2022-09-09T03:38:50;100459.09;;;10.35;67.64
59600;BME280;61855;55.030;73.326;2022-09-09T03:41:16;100479.50;;;10.45;67.25
59600;BME280;61855;55.030;73.326;2022-09-09T03:43:54;100471.72;;;10.58;66.71
59600;BME280;61855;55.030;73.326;2022-09-09T03:46:24;100476.06;;;10.67;66.43
59600;BME280;61855;55.030;73.326;2022-09-09T03:48:50;100482.31;;;10.76;65.93
59600;BME280;61855;55.030;73.326;2022-09-09T03:51:22;100476.53;;;10.87;65.55
59600;BME280;61855;55.030;73.326;2022-09-09T03:53:52;100473.50;;;10.98;65.42
59600;BME280;61855;55.030;73.326;2022-09-09T03:56:21;100476.00;;;11.08;64.61
59600;BME280;61855;55.030;73.326;2022-09-09T03:58:47;100473.91;;;11.18;64.01
59600;BME280;61855;55.030;73.326;2022-09-09T04:01:15;100474.91;;;11.25;64.10
59600;BME280;61855;55.030;73.326;2022-09-09T04:03:43;100473.84;;;11.34;63.48
59600;BME280;61855;55.030;73.326;2022-09-09T04:06:13;100472.16;;;11.41;62.62
59600;BME280;61855;55.030;73.326;2022-09-09T04:08:51;100476.66;;;11.48;62.76
59600;BME280;61855;55.030;73.326;2022-09-09T04:11:28;100479.69;;;11.53;62.78
59600;BME280;61855;55.030;73.326;2022-09-09T04:14:07;100478.81;;;11.61;63.03
59600;BME280;61855;55.030;73.326;2022-09-09T04:16:34;100486.06;;;11.69;61.86
59600;BME280;61855;55.030;73.326;2022-09-09T04:19:03;100483.13;;;11.78;61.17
59600;BME280;61855;55.030;73.326;2022-09-09T04:21:30;100480.38;;;11.86;60.41
59600;BME280;61855;55.030;73.326;2022-09-09T04:24:09;100474.91;;;11.94;60.01
59600;BME280;61855;55.030;73.326;2022-09-09T04:26:38;100485.31;;;12.05;59.32
59600;BME280;61855;55.030;73.326;2022-09-09T04:29:09;100472.69;;;12.20;58.34
59600;BME280;61855;55.030;73.326;2022-09-09T04:31:36;100480.88;;;12.35;58.65
59600;BME280;61855;55.030;73.326;2022-09-09T04:34:03;100485.28;;;12.51;57.85
59600;BME280;61855;55.030;73.326;2022-09-09T04:36:32;100481.41;;;12.68;56.64
59600;BME280;61855;55.030;73.326;2022-09-09T04:39:00;100472.13;;;12.85;56.28
59600;BME280;61855;55.030;73.326;2022-09-09T04:41:38;100470.25;;;13.00;54.23
59600;BME280;61855;55.030;73.326;2022-09-09T04:44:04;100465.13;;;13.20;54.04
59600;BME280;61855;55.030;73.326;2022-09-09T04:46:32;100472.41;;;13.34;53.21
59600;BME280;61855;55.030;73.326;2022-09-09T04:49:00;100463.25;;;13.49;51.82
59600;BME280;61855;55.030;73.326;2022-09-09T04:51:34;100464.59;;;13.75;51.51
59600;BME280;61855;55.030;73.326;2022-09-09T04:54:03;100446.53;;;14.03;49.83
59600;BME280;61855;55.030;73.326;2022-09-09T04:56:29;100457.97;;;14.41;49.62
59600;BME280;61855;55.030;73.326;2022-09-09T04:58:57;100465.66;;;14.86;49.76
59600;BME280;61855;55.030;73.326;2022-09-09T05:01:32;100448.91;;;15.17;48.87
59600;BME280;61855;55.030;73.326;2022-09-09T05:04:02;100441.72;;;15.37;48.10
59600;BME280;61855;55.030;73.326;2022-09-09T05:06:33;100443.88;;;15.48;48.10
59600;BME280;61855;55.030;73.326;2022-09-09T05:09:00;100450.19;;;15.55;46.65
59600;BME280;61855;55.030;73.326;2022-09-09T05:11:40;100448.09;;;15.57;46.93
59600;BME280;61855;55.030;73.326;2022-09-09T05:14:35;100431.56;;;15.52;46.96
59600;BME280;61855;55.030;73.326;2022-09-09T05:17:07;100427.16;;;15.44;46.93
59600;BME280;61855;55.030;73.326;2022-09-09T05:19:36;100432.81;;;15.49;47.66
59600;BME280;61855;55.030;73.326;2022-09-09T05:22:02;100427.16;;;15.51;47.26
59600;BME280;61855;55.030;73.326;2022-09-09T05:24:38;100413.06;;;15.41;46.88
59600;BME280;61855;55.030;73.326;2022-09-09T05:27:07;100418.28;;;15.36;46.23
59600;BME280;61855;55.030;73.326;2022-09-09T05:29:36;100418.94;;;15.38;46.75
59600;BME280;61855;55.030;73.326;2022-09-09T05:32:04;100401.53;;;15.32;45.42
59600;BME280;61855;55.030;73.326;2022-09-09T05:34:30;100407.97;;;15.25;45.38
59600;BME280;61855;55.030;73.326;2022-09-09T05:36:55;100403.41;;;15.25;45.70
59600;BME280;61855;55.030;73.326;2022-09-09T05:39:23;100392.69;;;15.24;45.51
59600;BME280;61855;55.030;73.326;2022-09-09T05:41:48;100399.13;;;15.50;44.83
59600;BME280;61855;55.030;73.326;2022-09-09T05:44:14;100394.59;;;15.71;44.70
59600;BME280;61855;55.030;73.326;2022-09-09T05:46:41;100402.59;;;15.85;44.65
59600;BME280;61855;55.030;73.326;2022-09-09T05:49:07;100396.47;;;15.83;44.69
59600;BME280;61855;55.030;73.326;2022-09-09T05:51:34;100406.72;;;15.68;44.72
59600;BME280;61855;55.030;73.326;2022-09-09T05:54:05;100411.81;;;15.43;45.11
59600;BME280;61855;55.030;73.326;2022-09-09T05:56:36;100430.38;;;15.27;46.09
59600;BME280;61855;55.030;73.326;2022-09-09T05:59:04;100426.53;;;15.15;46.33
59600;BME280;61855;55.030;73.326;2022-09-09T06:01:42;100425.28;;;15.11;46.08
59600;BME280;61855;55.030;73.326;2022-09-09T06:04:17;100424.91;;;15.20;44.69
59600;BME280;61855;55.030;73.326;2022-09-09T06:06:44;100432.06;;;15.28;45.19
59600;BME280;61855;55.030;73.326;2022-09-09T06:09:17;100426.63;;;15.34;45.22
59600;BME280;61855;55.030;73.326;2022-09-09T06:11:43;100420.38;;;15.40;45.46
59600;BME280;61855;55.030;73.326;2022-09-09T06:14:20;100403.09;;;15.48;45.89
59600;BME280;61855;55.030;73.326;2022-09-09T06:16:57;100400.78;;;15.45;46.04
59600;BME280;61855;55.030;73.326;2022-09-09T06:19:29;100394.94;;;15.48;45.07
59600;BME280;61855;55.030;73.326;2022-09-09T06:21:58;100387.00;;;15.53;45.15
59600;BME280;61855;55.030;73.326;2022-09-09T06:24:36;100383.44;;;15.52;44.81
59600;BME280;61855;55.030;73.326;2022-09-09T06:27:02;100377.38;;;15.57;44.43
59600;BME280;61855;55.030;73.326;2022-09-09T06:29:34;100378.22;;;15.51;44.73
59600;BME280;61855;55.030;73.326;2022-09-09T06:32:02;100373.16;;;15.48;45.17
59600;BME280;61855;55.030;73.326;2022-09-09T06:34:28;100365.34;;;15.32;45.60
59600;BME280;61855;55.030;73.326;2022-09-09T06:36:56;100358.41;;;15.23;45.29
59600;BME280;61855;55.030;73.326;2022-09-09T06:39:34;100369.28;;;15.16;45.84
59600;BME280;61855;55.030;73.326;2022-09-09T06:42:00;100359.44;;;15.15;46.18
59600;BME280;61855;55.030;73.326;2022-09-09T06:44:58;100353.75;;;15.10;46.26
59600;BME280;61855;55.030;73.326;2022-09-09T06:47:41;100355.25;;;15.19;45.67
59600;BME280;61855;55.030;73.326;2022-09-09T06:50:12;100352.59;;;15.26;45.08
59600;BME280;61855;55.030;73.326;2022-09-09T06:52:39;100331.50;;;15.41;44.67
59600;BME280;61855;55.030;73.326;2022-09-09T06:55:05;100330.09;;;15.58;44.42
59600;BME280;61855;55.030;73.326;2022-09-09T06:57:32;100324.06;;;15.89;43.05
59600;BME280;61855;55.030;73.326;2022-09-09T07:00:08;100309.44;;;16.16;42.94
59600;BME280;61855;55.030;73.326;2022-09-09T07:02:35;100319.25;;;16.30;43.28
59600;BME280;61855;55.030;73.326;2022-09-09T07:05:05;100310.66;;;16.33;42.77
59600;BME280;61855;55.030;73.326;2022-09-09T07:07:31;100305.63;;;16.37;42.88
59600;BME280;61855;55.030;73.326;2022-09-09T07:09:57;100299.97;;;16.45;41.40
59600;BME280;61855;55.030;73.326;2022-09-09T07:12:24;100298.47;;;16.68;42.19
59600;BME280;61855;55.030;73.326;2022-09-09T07:14:56;100293.13;;;16.93;41.59
59600;BME280;61855;55.030;73.326;2022-09-09T07:17:22;100295.53;;;17.14;40.59
59600;BME280;61855;55.030;73.326;2022-09-09T07:19:48;100281.19;;;17.32;40.50
59600;BME280;61855;55.030;73.326;2022-09-09T07:22:15;100282.56;;;17.47;40.23
59600;BME280;61855;55.030;73.326;2022-09-09T07:24:42;100272.63;;;17.59;40.08
59600;BME280;61855;55.030;73.326;2022-09-09T07:27:11;100262.13;;;17.63;37.46
59600;BME280;61855;55.030;73.326;2022-09-09T07:29:37;100264.53;;;17.78;37.24
59600;BME280;61855;55.030;73.326;2022-09-09T07:32:03;100257.31;;;17.90;37.50
59600;BME280;61855;55.030;73.326;2022-09-09T07:34:35;100254.13;;;17.93;38.41
59600;BME280;61855;55.030;73.326;2022-09-09T07:37:01;100247.59;;;17.94;37.34
59600;BME280;61855;55.030;73.326;2022-09-09T07:39:29;100233.72;;;17.95;37.23
59600;BME280;61855;55.030;73.326;2022-09-09T07:41:55;100242.22;;;17.87;38.12
59600;BME280;61855;55.030;73.326;2022-09-09T07:44:24;100227.16;;;17.78;37.77
59600;BME280;61855;55.030;73.326;2022-09-09T07:47:05;100231.72;;;17.59;38.55
59600;BME280;61855;55.030;73.326;2022-09-09T07:49:49;100228.22;;;17.46;38.16
59600;BME280;61855;55.030;73.326;2022-09-09T07:52:19;100222.81;;;17.39;37.58
59600;BME280;61855;55.030;73.326;2022-09-09T07:54:47;100213.56;;;17.40;37.62
59600;BME280;61855;55.030;73.326;2022-09-09T07:57:13;100213.06;;;17.50;37.40
59600;BME280;61855;55.030;73.326;2022-09-09T07:59:41;100220.19;;;17.57;36.74
59600;BME280;61855;55.030;73.326;2022-09-09T08:02:10;100209.44;;;17.63;36.08
59600;BME280;61855;55.030;73.326;2022-09-09T08:04:36;100214.81;;;17.76;36.21
59600;BME280;61855;55.030;73.326;2022-09-09T08:07:03;100191.88;;;18.01;34.39
59600;BME280;61855;55.030;73.326;2022-09-09T08:09:33;100188.47;;;18.24;33.66
59600;BME280;61855;55.030;73.326;2022-09-09T08:12:15;100180.75;;;18.39;33.34
59600;BME280;61855;55.030;73.326;2022-09-09T08:14:42;100178.13;;;18.51;33.36
59600;BME280;61855;55.030;73.326;2022-09-09T08:17:10;100170.78;;;18.81;33.14
59600;BME280;61855;55.030;73.326;2022-09-09T08:19:37;100165.63;;;19.03;32.21
59600;BME280;61855;55.030;73.326;2022-09-09T08:22:08;100156.75;;;19.19;32.15
59600;BME280;61855;55.030;73.326;2022-09-09T08:24:45;100151.94;;;19.32;32.52
59600;BME280;61855;55.030;73.326;2022-09-09T08:27:13;100135.25;;;19.34;32.21
59600;BME280;61855;55.030;73.326;2022-09-09T08:29:39;100144.81;;;19.43;32.00
59600;BME280;61855;55.030;73.326;2022-09-09T08:32:15;100142.22;;;19.48;31.36
59600;BME280;61855;55.030;73.326;2022-09-09T08:34:43;100141.75;;;19.51;31.22
59600;BME280;61855;55.030;73.326;2022-09-09T08:37:14;100132.81;;;19.44;31.48
59600;BME280;61855;55.030;73.326;2022-09-09T08:39:42;100138.16;;;19.39;31.79
59600;BME280;61855;55.030;73.326;2022-09-09T08:44:45;100122.22;;;19.36;32.51
59600;BME280;61855;55.030;73.326;2022-09-09T08:49:56;100110.34;;;19.42;32.06
59600;BME280;61855;55.030;73.326;2022-09-09T08:52:30;100117.47;;;19.66;32.11
59600;BME280;61855;55.030;73.326;2022-09-09T08:55:02;100109.28;;;19.78;30.60
59600;BME280;61855;55.030;73.326;2022-09-09T08:57:31;100114.63;;;19.84;31.68
59600;BME280;61855;55.030;73.326;2022-09-09T08:59:58;100106.28;;;19.79;30.76
59600;BME280;61855;55.030;73.326;2022-09-09T09:02:44;100103.69;;;19.73;31.46
59600;BME280;61855;55.030;73.326;2022-09-09T09:07:54;100099.84;;;19.62;31.50
59600;BME280;61855;55.030;73.326;2022-09-09T09:10:37;100089.25;;;19.77;31.12
59600;BME280;61855;55.030;73.326;2022-09-09T09:13:12;100081.63;;;19.91;30.84
59600;BME280;61855;55.030;73.326;2022-09-09T09:15:39;100085.06;;;19.98;30.76
59600;BME280;61855;55.030;73.326;2022-09-09T09:18:10;100058.53;;;19.87;29.70
59600;BME280;61855;55.030;73.326;2022-09-09T09:20:50;100057.00;;;19.79;29.40
59600;BME280;61855;55.030;73.326;2022-09-09T09:23:24;100062.94;;;19.76;29.11
59600;BME280;61855;55.030;73.326;2022-09-09T09:25:56;100050.94;;;19.77;28.86
59600;BME280;61855;55.030;73.326;2022-09-09T09:28:26;100043.41;;;19.84;28.11
59600;BME280;61855;55.030;73.326;2022-09-09T09:31:03;100048.63;;;19.97;27.55
59600;BME280;61855;55.030;73.326;2022-09-09T09:33:34;100053.97;;;20.04;27.94
59600;BME280;61855;55.030;73.326;2022-09-09T09:36:02;100044.41;;;20.06;28.98
59600;BME280;61855;55.030;73.326;2022-09-09T09:38:29;100044.34;;;20.01;28.47
59600;BME280;61855;55.030;73.326;2022-09-09T09:40:58;100041.38;;;19.91;29.28
59600;BME280;61855;55.030;73.326;2022-09-09T09:43:34;100035.44;;;19.71;28.95
59600;BME280;61855;55.030;73.326;2022-09-09T09:46:05;100017.28;;;19.53;28.39
59600;BME280;61855;55.030;73.326;2022-09-09T09:48:43;100015.25;;;19.37;28.90
59600;BME280;61855;55.030;73.326;2022-09-09T09:51:22;100020.56;;;19.21;29.25
59600;BME280;61855;55.030;73.326;2022-09-09T09:53:48;100017.03;;;19.09;29.06
59600;BME280;61855;55.030;73.326;2022-09-09T09:56:26;100017.63;;;19.11;29.39
59600;BME280;61855;55.030;73.326;2022-09-09T09:58:55;100023.19;;;19.04;29.48
59600;BME280;61855;55.030;73.326;2022-09-09T10:01:32;100013.78;;;19.00;30.47
59600;BME280;61855;55.030;73.326;2022-09-09T10:06:42;100007.09;;;18.73;30.50
59600;BME280;61855;55.030;73.326;2022-09-09T10:09:20;100013.59;;;18.60;30.72
59600;BME280;61855;55.030;73.326;2022-09-09T10:11:55;99999.56;;;18.57;30.23
59600;BME280;61855;55.030;73.326;2022-09-09T10:19:32;99989.34;;;18.52;30.58
59600;BME280;61855;55.030;73.326;2022-09-09T10:22:08;100001.25;;;18.58;31.03
59600;BME280;61855;55.030;73.326;2022-09-09T10:32:49;99993.59;;;18.89;30.90
59600;BME280;61855;55.030;73.326;2022-09-09T10:45:45;99994.91;;;19.68;29.18
59600;BME280;61855;55.030;73.326;2022-09-09T10:50:52;99997.63;;;19.68;29.45
59600;BME280;61855;55.030;73.326;2022-09-09T10:53:43;99998.00;;;19.60;29.70
59600;BME280;61855;55.030;73.326;2022-09-09T10:56:10;99996.91;;;19.73;29.93
59600;BME280;61855;55.030;73.326;2022-09-09T11:01:24;100001.69;;;20.05;29.55
59600;BME280;61855;55.030;73.326;2022-09-09T11:03:56;99976.31;;;20.10;29.38
59600;BME280;61855;55.030;73.326;2022-09-09T11:06:47;99990.03;;;19.98;29.40
59600;BME280;61855;55.030;73.326;2022-09-09T11:09:15;100000.09;;;19.81;30.38
59600;BME280;61855;55.030;73.326;2022-09-09T11:11:48;99996.69;;;19.63;30.12
59600;BME280;61855;55.030;73.326;2022-09-09T11:14:17;100000.75;;;19.48;30.88
59600;BME280;61855;55.030;73.326;2022-09-09T11:16:50;99986.56;;;19.28;30.66
59600;BME280;61855;55.030;73.326;2022-09-09T11:19:35;99996.66;;;19.16;30.97
59600;BME280;61855;55.030;73.326;2022-09-09T11:24:46;99994.06;;;19.21;31.05
59600;BME280;61855;55.030;73.326;2022-09-09T11:27:15;99984.66;;;19.29;30.99
59600;BME280;61855;55.030;73.326;2022-09-09T11:37:59;99998.91;;;21.23;28.80
59600;BME280;61855;55.030;73.326;2022-09-09T11:40:33;99998.59;;;21.20;28.72
59600;BME280;61855;55.030;73.326;2022-09-09T11:43:05;99998.41;;;20.93;28.75
59600;BME280;61855;55.030;73.326;2022-09-09T11:45:42;100002.84;;;20.66;28.79
59600;BME280;61855;55.030;73.326;2022-09-09T11:48:23;100001.41;;;20.75;28.32
59600;BME280;61855;55.030;73.326;2022-09-09T11:50:58;99994.13;;;20.52;28.32
59600;BME280;61855;55.030;73.326;2022-09-09T11:53:30;100000.88;;;20.33;28.35
59600;BME280;61855;55.030;73.326;2022-09-09T11:56:02;99996.03;;;20.23;28.52
59600;BME280;61855;55.030;73.326;2022-09-09T11:58:31;99988.03;;;19.94;28.17
59600;BME280;61855;55.030;73.326;2022-09-09T12:01:42;100002.41;;;20.01;28.63
59600;BME280;61855;55.030;73.326;2022-09-09T12:06:32;100002.09;;;19.86;28.48
59600;BME280;61855;55.030;73.326;2022-09-09T12:11:52;100000.84;;;19.65;29.29
59600;BME280;61855;55.030;73.326;2022-09-09T12:14:20;99987.09;;;19.37;29.47
59600;BME280;61855;55.030;73.326;2022-09-09T12:16:57;99998.09;;;19.19;30.24
59600;BME280;61855;55.030;73.326;2022-09-09T12:19:34;100004.41;;;19.08;30.30
59600;BME280;61855;55.030;73.326;2022-09-09T12:22:18;100003.44;;;18.90;30.52
59600;BME280;61855;55.030;73.326;2022-09-09T12:27:19;100000.81;;;18.72;30.81
59600;BME280;61855;55.030;73.326;2022-09-09T12:29:50;100007.59;;;18.81;30.92
59600;BME280;61855;55.030;73.326;2022-09-09T12:32:25;100006.34;;;19.42;30.38
59600;BME280;61855;55.030;73.326;2022-09-09T12:34:54;100011.31;;;19.56;30.13
59600;BME280;61855;55.030;73.326;2022-09-09T12:37:36;100007.41;;;19.52;30.17
59600;BME280;61855;55.030;73.326;2022-09-09T12:42:39;99992.56;;;20.89;27.73
59600;BME280;61855;55.030;73.326;2022-09-09T12:45:16;99993.19;;;21.08;27.42
59600;BME280;61855;55.030;73.326;2022-09-09T12:50:15;99995.50;;;21.16;27.77
59600;BME280;61855;55.030;73.326;2022-09-09T12:52:43;100008.28;;;21.44;27.40
59600;BME280;61855;55.030;73.326;2022-09-09T12:55:24;100004.31;;;21.18;28.11
59600;BME280;61855;55.030;73.326;2022-09-09T12:57:53;100005.06;;;21.14;28.03
59600;BME280;61855;55.030;73.326;2022-09-09T13:00:23;100011.88;;;21.11;28.08
59600;BME280;61855;55.030;73.326;2022-09-09T13:03:02;100012.00;;;20.71;29.05
59600;BME280;61855;55.030;73.326;2022-09-09T13:05:39;100014.00;;;19.91;30.28
59600;BME280;61855;55.030;73.326;2022-09-09T13:08:10;100014.44;;;19.37;31.13
59600;BME280;61855;55.030;73.326;2022-09-09T13:10:52;100013.44;;;18.85;31.92
59600;BME280;61855;55.030;73.326;2022-09-09T13:13:33;100014.09;;;18.39;32.46
59600;BME280;61855;55.030;73.326;2022-09-09T13:16:02;100014.63;;;18.00;33.50
59600;BME280;61855;55.030;73.326;2022-09-09T13:18:32;100025.59;;;17.64;34.45
59600;BME280;61855;55.030;73.326;2022-09-09T13:21:02;100024.22;;;17.30;34.98
59600;BME280;61855;55.030;73.326;2022-09-09T13:23:38;100034.78;;;16.95;35.92
59600;BME280;61855;55.030;73.326;2022-09-09T13:26:26;100019.44;;;16.76;35.74
59600;BME280;61855;55.030;73.326;2022-09-09T13:28:52;100019.59;;;16.50;37.03
59600;BME280;61855;55.030;73.326;2022-09-09T13:31:20;100014.06;;;16.32;37.55
59600;BME280;61855;55.030;73.326;2022-09-09T13:33:46;100034.06;;;16.12;38.62
59600;BME280;61855;55.030;73.326;2022-09-09T13:36:27;100037.28;;;15.96;38.54
59600;BME280;61855;55.030;73.326;2022-09-09T13:38:58;100042.13;;;15.81;39.12
59600;BME280;61855;55.030;73.326;2022-09-09T13:41:27;100043.25;;;15.67;39.35
59600;BME280;61855;55.030;73.326;2022-09-09T13:43:55;100037.84;;;15.54;39.49
59600;BME280;61855;55.030;73.326;2022-09-09T13:46:39;100043.50;;;15.46;40.01
59600;BME280;61855;55.030;73.326;2022-09-09T13:51:43;100046.44;;;15.25;40.30
59600;BME280;61855;55.030;73.326;2022-09-09T13:54:21;100054.38;;;15.20;40.77
59600;BME280;61855;55.030;73.326;2022-09-09T13:56:48;100050.00;;;15.12;40.46
59600;BME280;61855;55.030;73.326;2022-09-09T13:59:16;100053.78;;;15.05;41.19
59600;BME280;61855;55.030;73.326;2022-09-09T14:01:47;100066.09;;;14.94;41.25
59600;BME280;61855;55.030;73.326;2022-09-09T14:04:14;100065.47;;;14.85;41.36
59600;BME280;61855;55.030;73.326;2022-09-09T14:06:41;100063.19;;;14.76;41.39
59600;BME280;61855;55.030;73.326;2022-09-09T14:09:10;100069.41;;;14.70;41.47
59600;BME280;61855;55.030;73.326;2022-09-09T14:11:36;100065.00;;;14.62;42.09
59600;BME280;61855;55.030;73.326;2022-09-09T14:14:13;100070.66;;;14.54;42.11
59600;BME280;61855;55.030;73.326;2022-09-09T14:16:39;100071.91;;;14.45;42.56
59600;BME280;61855;55.030;73.326;2022-09-09T14:19:04;100082.31;;;14.42;42.60
59600;BME280;61855;55.030;73.326;2022-09-09T14:21:30;100069.50;;;14.29;42.90
59600;BME280;61855;55.030;73.326;2022-09-09T14:23:56;100073.66;;;14.18;43.47
59600;BME280;61855;55.030;73.326;2022-09-09T14:26:33;100081.78;;;14.12;43.20
59600;BME280;61855;55.030;73.326;2022-09-09T14:29:04;100074.19;;;14.01;43.37
59600;BME280;61855;55.030;73.326;2022-09-09T14:31:35;100081.47;;;13.94;44.08
59600;BME280;61855;55.030;73.326;2022-09-09T14:34:01;100092.31;;;13.94;43.67
59600;BME280;61855;55.030;73.326;2022-09-09T14:36:27;100095.22;;;13.86;43.37
59600;BME280;61855;55.030;73.326;2022-09-09T14:39:03;100099.09;;;13.77;44.03
59600;BME280;61855;55.030;73.326;2022-09-09T14:41:30;100088.19;;;13.64;44.45
59600;BME280;61855;55.030;73.326;2022-09-09T14:43:56;100100.88;;;13.56;45.28
59600;BME280;61855;55.030;73.326;2022-09-09T14:46:27;100094.81;;;13.54;44.67
59600;BME280;61855;55.030;73.326;2022-09-09T14:48:54;100094.97;;;13.46;45.18